Ocean Glory — KOGH — position and weather

sailwx.info

Track history (hours):
 
Tides and Currents Weather Stations Pressure Air Temp Water Temp Dewpoint Dewpoint Depression Visibility Wind Speed Wind Dir Waves Ship Positions

Ocean Glory

Owner: Crowley Global Ship Management, Jacksonville, FL. More information available from US FCC via Universal Licensing System and Coast Guard Vessel Documentation Center.

Last reported at 2017-Sep-22 01:59 UTC. Time now 2017-Sep-22 04:38 UTC.
Position N 29°44' W 095°17'.

Length 171 m; draft 8.1 m.

Type: Ship. MMSI: 367721220.

Date/timePositionNaut miles runAvg speedWind from/ knotsBaromVisibWave heightAir tempDewpointWater temp
2017-Sep-22 01:59N 29°44' W 095°17'0 0.0
2017-Sep-22 01:29N 29°44' W 095°17'0 0.0
2017-Sep-22 00:59N 29°44' W 095°17'0 0.0
2017-Sep-22 00:29N 29°44' W 095°17'0 0.0
2017-Sep-21 23:59N 29°44' W 095°17'0 0.0
2017-Sep-21 23:29N 29°44' W 095°17'0 0.0
2017-Sep-21 22:47N 29°44' W 095°17'0 0.0
2017-Sep-21 22:29N 29°44' W 095°17'0 0.0
2017-Sep-21 21:53N 29°44' W 095°17'0 0.0
2017-Sep-21 21:29N 29°44' W 095°17'0 0.0
2017-Sep-21 20:59N 29°44' W 095°17'0 0.0
2017-Sep-21 20:29N 29°44' W 095°17'0 0.0
2017-Sep-21 19:59N 29°44' W 095°17'0 0.0
2017-Sep-21 19:29N 29°44' W 095°17'0 0.0
2017-Sep-21 18:59N 29°44' W 095°17'0 0.0
2017-Sep-21 18:29N 29°44' W 095°17'0 0.0
2017-Sep-21 17:59N 29°44' W 095°17'0 0.0
2017-Sep-21 17:02N 29°44' W 095°17'0 0.0
2017-Sep-21 16:41N 29°44' W 095°17'0 0.0
2017-Sep-21 16:26N 29°44' W 095°17'0 0.0
2017-Sep-21 14:08N 29°44' W 095°17'0 0.0
2017-Sep-20 13:49N 29°44' W 095°17'0 0.0
2017-Sep-19 03:01N 29°44' W 095°17'0 0.0
2017-Sep-19 02:46N 29°44' W 095°17'0 0.0
2017-Sep-19 02:16N 29°44' W 095°17'0 0.0
2017-Sep-19 01:13N 29°44' W 095°17'0 0.0
2017-Sep-19 00:55N 29°44' W 095°17'0 0.0
2017-Sep-18 21:37N 29°44' W 095°17'0 0.0
2017-Sep-18 21:28N 29°44' W 095°17'0 0.0
2017-Sep-18 19:52N 29°44' W 095°17'0 0.0
2017-Sep-18 19:28N 29°44' W 095°17'0 0.0
2017-Sep-18 18:31N 29°44' W 095°17'0 0.0
2017-Sep-18 18:13N 29°44' W 095°17'0 0.0
2017-Sep-18 17:43N 29°44' W 095°17'0 0.0
2017-Sep-18 15:31N 29°44' W 095°17'0 0.0
2017-Sep-18 15:13N 29°44' W 095°17'0 0.0
2017-Sep-18 14:58N 29°44' W 095°17'1 0.0
2017-Sep-17 12:20N 29°44' W 095°16'2 4.7
2017-Sep-17 11:59N 29°43' W 095°14'3 5.6
2017-Sep-17 11:28N 29°45' W 095°12'3 6.0
2017-Sep-17 10:53N 29°44' W 095°08'2 6.4
2017-Sep-17 10:30N 29°46' W 095°05'2 4.8
2017-Sep-17 10:00N 29°44' W 095°03'3 5.5
2017-Sep-17 09:30N 29°42' W 095°01'510.0
2017-Sep-17 09:00N 29°38' W 094°58'713.7
2017-Sep-17 08:31N 29°32' W 094°54'815.3
2017-Sep-17 08:00N 29°25' W 094°50'3510.6
2017-Sep-17 04:42N 28°58' W 094°25'312.6
2017-Sep-17 04:29N 28°55' W 094°25'  
Track history (hours):
 
Tides and Currents Weather Stations Pressure Air Temp Water Temp Dewpoint Dewpoint Depression Visibility Wind Speed Wind Dir Waves Ship Positions

Ocean Glory

Owner: Crowley Global Ship Management, Jacksonville, FL. More information available from US FCC via Universal Licensing System and Coast Guard Vessel Documentation Center.

Last reported at 2017-Sep-22 01:59 UTC. Time now 2017-Sep-22 04:38 UTC.
Position N 29°44' W 095°17'.

Length 171 m; draft 8.1 m.

Type: Ship. MMSI: 367721220.

Date/timePositionNaut miles runAvg speedWind from/ knotsBaromVisibWave heightAir tempDewpointWater temp
2017-Sep-22 01:59N 29°44' W 095°17'0 0.0
2017-Sep-22 01:29N 29°44' W 095°17'0 0.0
2017-Sep-22 00:59N 29°44' W 095°17'0 0.0
2017-Sep-22 00:29N 29°44' W 095°17'0 0.0
2017-Sep-21 23:59N 29°44' W 095°17'0 0.0
2017-Sep-21 23:29N 29°44' W 095°17'0 0.0
2017-Sep-21 22:47N 29°44' W 095°17'0 0.0
2017-Sep-21 22:29N 29°44' W 095°17'0 0.0
2017-Sep-21 21:53N 29°44' W 095°17'0 0.0
2017-Sep-21 21:29N 29°44' W 095°17'0 0.0
2017-Sep-21 20:59N 29°44' W 095°17'0 0.0
2017-Sep-21 20:29N 29°44' W 095°17'0 0.0
2017-Sep-21 19:59N 29°44' W 095°17'0 0.0
2017-Sep-21 19:29N 29°44' W 095°17'0 0.0
2017-Sep-21 18:59N 29°44' W 095°17'0 0.0
2017-Sep-21 18:29N 29°44' W 095°17'0 0.0
2017-Sep-21 17:59N 29°44' W 095°17'0 0.0
2017-Sep-21 17:02N 29°44' W 095°17'0 0.0
2017-Sep-21 16:41N 29°44' W 095°17'0 0.0
2017-Sep-21 16:26N 29°44' W 095°17'0 0.0
2017-Sep-21 14:08N 29°44' W 095°17'0 0.0
2017-Sep-20 13:49N 29°44' W 095°17'0 0.0
2017-Sep-19 03:01N 29°44' W 095°17'0 0.0
2017-Sep-19 02:46N 29°44' W 095°17'0 0.0
2017-Sep-19 02:16N 29°44' W 095°17'0 0.0
2017-Sep-19 01:13N 29°44' W 095°17'0 0.0
2017-Sep-19 00:55N 29°44' W 095°17'0 0.0
2017-Sep-18 21:37N 29°44' W 095°17'0 0.0
2017-Sep-18 21:28N 29°44' W 095°17'0 0.0
2017-Sep-18 19:52N 29°44' W 095°17'0 0.0
2017-Sep-18 19:28N 29°44' W 095°17'0 0.0
2017-Sep-18 18:31N 29°44' W 095°17'0 0.0
2017-Sep-18 18:13N 29°44' W 095°17'0 0.0
2017-Sep-18 17:43N 29°44' W 095°17'0 0.0
2017-Sep-18 15:31N 29°44' W 095°17'0 0.0
2017-Sep-18 15:13N 29°44' W 095°17'0 0.0
2017-Sep-18 14:58N 29°44' W 095°17'1 0.0
2017-Sep-17 12:20N 29°44' W 095°16'2 4.7
2017-Sep-17 11:59N 29°43' W 095°14'3 5.6
2017-Sep-17 11:28N 29°45' W 095°12'3 6.0
2017-Sep-17 10:53N 29°44' W 095°08'2 6.4
2017-Sep-17 10:30N 29°46' W 095°05'2 4.8
2017-Sep-17 10:00N 29°44' W 095°03'3 5.5
2017-Sep-17 09:30N 29°42' W 095°01'510.0
2017-Sep-17 09:00N 29°38' W 094°58'713.7
2017-Sep-17 08:31N 29°32' W 094°54'815.3
2017-Sep-17 08:00N 29°25' W 094°50'3510.6
2017-Sep-17 04:42N 28°58' W 094°25'312.6
2017-Sep-17 04:29N 28°55' W 094°25'  

Dump ship's entire track history